createdAt,value
2017-03-29T15:09:30.974Z,56.3
2017-03-29T15:09:40.662Z,56.3
2017-03-29T15:09:50.961Z,56.3
2017-03-29T15:10:00.623Z,56.3
2017-03-29T15:10:11.312Z,56.3
2017-03-29T15:10:20.948Z,56.3
2017-03-29T15:10:30.953Z,50.6
2017-03-29T15:10:40.805Z,50.6
2017-03-29T15:10:50.929Z,50.6
2017-03-29T15:11:00.591Z,50.6
2017-03-29T15:11:10.920Z,50.6
2017-03-29T15:11:20.270Z,50.6
2017-03-29T15:11:30.909Z,50.6
2017-03-29T15:11:40.026Z,45
2017-03-29T15:11:50.225Z,45
2017-03-29T15:12:00.895Z,45
2017-03-29T15:12:10.886Z,45
2017-03-29T15:12:20.550Z,45
2017-03-29T15:12:30.877Z,45
2017-03-29T15:12:40.872Z,45
2017-03-29T15:12:50.868Z,45
2017-03-29T15:13:00.865Z,45
2017-03-29T15:13:10.521Z,45
2017-03-29T15:13:20.535Z,45
2017-03-29T15:13:30.847Z,45
2017-03-29T15:13:41.196Z,45
2017-03-29T15:13:50.838Z,45
2017-03-29T15:14:00.499Z,45
2017-03-29T15:14:10.526Z,45
2017-03-29T15:14:20.149Z,45
2017-03-29T15:14:30.730Z,45
2017-03-29T15:14:40.137Z,45
2017-03-29T15:14:50.802Z,45
2017-03-29T15:15:00.464Z,45
2017-03-29T15:15:10.460Z,45
2017-03-29T15:15:20.812Z,50.6
2017-03-29T15:15:30.450Z,50.6
2017-03-29T15:15:40.775Z,45
2017-03-29T15:15:50.773Z,45
2017-03-29T15:16:00.432Z,45
2017-03-29T15:16:10.425Z,45
2017-03-29T15:16:20.421Z,45
2017-03-29T15:16:30.416Z,45
2017-03-29T15:16:40.104Z,45
2017-03-29T15:16:51.091Z,45
2017-03-29T15:17:00.739Z,39.4
2017-03-29T15:17:10.066Z,39.4
2017-03-29T15:17:20.388Z,39.4
2017-03-29T15:17:30.420Z,39.4
2017-03-29T15:17:40.718Z,39.4
2017-03-29T15:17:50.501Z,39.4
2017-03-29T15:18:00.372Z,39.4
2017-03-29T15:18:10.367Z,39.4
2017-03-29T15:18:20.389Z,39.4
2017-03-29T15:18:30.695Z,39.4
2017-03-29T15:18:40.141Z,33.8
2017-03-29T15:18:51.034Z,33.8
2017-03-29T15:19:00.338Z,33.8
2017-03-29T15:19:10.667Z,33.8
2017-03-29T15:19:20.661Z,39.4
2017-03-29T15:19:30.909Z,39.4
2017-03-29T15:19:39.788Z,39.4
2017-03-29T15:19:50.310Z,39.4
2017-03-29T15:20:00.641Z,39.4
2017-03-29T15:20:10.299Z,39.4
2017-03-29T15:20:20.626Z,33.8
2017-03-29T15:20:30.621Z,33.8
2017-03-29T15:20:40.290Z,33.8
2017-03-29T15:20:50.313Z,33.8
2017-03-29T15:21:00.301Z,33.8
2017-03-29T15:21:09.936Z,33.8
2017-03-29T15:21:20.263Z,33.8
2017-03-29T15:21:30.591Z,33.8
2017-03-29T15:21:40.252Z,33.8
2017-03-29T15:21:50.605Z,33.8
2017-03-29T15:22:00.577Z,33.8
2017-03-29T15:22:10.239Z,33.8
2017-03-29T15:22:20.583Z,33.8
2017-03-29T15:22:29.559Z,33.8
2017-03-29T15:22:40.250Z,33.8
2017-03-29T15:22:50.548Z,33.8
2017-03-29T15:23:00.208Z,33.8
2017-03-29T15:23:09.871Z,33.8
2017-03-29T15:23:20.535Z,33.8
2017-03-29T15:23:29.861Z,33.8
2017-03-29T15:23:40.191Z,33.8
2017-03-29T15:23:49.852Z,33.8
2017-03-29T15:24:00.518Z,33.8
2017-03-29T15:24:10.513Z,33.8
2017-03-29T15:24:20.505Z,33.8
2017-03-29T15:24:30.749Z,39.4
2017-03-29T15:24:40.159Z,39.4
2017-03-29T15:24:50.487Z,39.4
2017-03-29T15:24:59.811Z,39.4
2017-03-29T15:25:10.274Z,39.4
2017-03-29T15:25:20.467Z,45
2017-03-29T15:25:30.474Z,45
2017-03-29T15:25:40.494Z,45
2017-03-29T15:25:50.804Z,45
2017-03-29T15:26:00.447Z,45
2017-03-29T15:26:10.469Z,45
2017-03-29T15:26:20.235Z,45
2017-03-29T15:26:29.784Z,45
2017-03-29T15:26:40.096Z,50.6
2017-03-29T15:26:50.451Z,50.6
2017-03-29T15:27:00.419Z,50.6
2017-03-29T15:27:10.079Z,50.6
2017-03-29T15:27:19.738Z,50.6
2017-03-29T15:27:30.074Z,56.3
2017-03-29T15:27:40.417Z,56.3
2017-03-29T15:27:50.395Z,56.3
2017-03-29T15:28:00.387Z,56.3
2017-03-29T15:28:10.381Z,56.3
2017-03-29T15:28:20.728Z,56.3
2017-03-29T15:28:30.034Z,56.3
2017-03-29T15:28:40.028Z,56.3
2017-03-29T15:28:50.358Z,56.3
2017-03-29T15:29:00.717Z,56.3
2017-03-29T15:29:10.353Z,56.3
2017-03-29T15:29:20.381Z,56.3
2017-03-29T15:29:30.253Z,56.3
2017-03-29T15:29:40.000Z,56.3
2017-03-29T15:29:50.333Z,56.3
2017-03-29T15:30:00.325Z,56.3
2017-03-29T15:30:10.318Z,56.3
2017-03-29T15:30:20.313Z,56.3
2017-03-29T15:30:29.976Z,56.3
2017-03-29T15:30:39.975Z,56.3
2017-03-29T15:30:50.298Z,56.3
2017-03-29T15:31:00.316Z,56.3
2017-03-29T15:31:10.283Z,56.3
2017-03-29T15:31:20.278Z,56.3
2017-03-29T15:31:29.943Z,56.3
2017-03-29T15:31:40.274Z,56.3
2017-03-29T15:31:50.296Z,56.3
2017-03-29T15:32:00.273Z,56.3
2017-03-29T15:32:10.616Z,56.3
2017-03-29T15:32:18.915Z,56.3
2017-03-29T15:32:29.909Z,56.3
2017-03-29T15:32:40.238Z,61.9
2017-03-29T15:32:49.905Z,61.9
2017-03-29T15:32:59.556Z,61.9
2017-03-29T15:33:10.226Z,61.9
2017-03-29T15:33:19.882Z,61.9
2017-03-29T15:33:30.581Z,61.9
2017-03-29T15:33:40.211Z,61.9
2017-03-29T15:33:49.868Z,61.9
2017-03-29T15:34:00.197Z,61.9
2017-03-29T15:34:09.658Z,61.9
2017-03-29T15:34:20.189Z,61.9
2017-03-29T15:34:29.846Z,61.9
2017-03-29T15:34:40.182Z,61.9
2017-03-29T15:34:49.835Z,61.9
2017-03-29T15:35:00.171Z,61.9
2017-03-29T15:35:10.161Z,61.9
2017-03-29T15:35:20.507Z,61.9
2017-03-29T15:35:30.158Z,61.9
2017-03-29T15:35:39.477Z,61.9
2017-03-29T15:35:49.808Z,56.3
2017-03-29T15:35:59.798Z,56.3
2017-03-29T15:36:09.793Z,56.3
2017-03-29T15:36:20.122Z,56.3
2017-03-29T15:36:30.469Z,56.3
2017-03-29T15:36:39.780Z,56.3
2017-03-29T15:36:49.772Z,56.3
2017-03-29T15:37:00.105Z,56.3
2017-03-29T15:37:10.454Z,56.3
2017-03-29T15:37:20.450Z,56.3
2017-03-29T15:37:30.088Z,56.3
2017-03-29T15:37:39.422Z,56.3
2017-03-29T15:37:49.742Z,56.3
2017-03-29T15:38:00.068Z,56.3
2017-03-29T15:38:10.432Z,56.3
2017-03-29T15:38:20.060Z,56.3
2017-03-29T15:38:29.739Z,56.3
2017-03-29T15:38:39.716Z,56.3
2017-03-29T15:38:50.049Z,56.3
2017-03-29T15:39:00.048Z,56.3
2017-03-29T15:39:10.036Z,56.3
2017-03-29T15:39:20.191Z,56.3
2017-03-29T15:39:29.690Z,56.3
2017-03-29T15:39:40.020Z,56.3
2017-03-29T15:39:48.678Z,56.3
2017-03-29T15:40:00.006Z,56.3
2017-03-29T15:40:10.004Z,56.3
2017-03-29T15:40:19.994Z,61.9
2017-03-29T15:40:29.656Z,61.9
2017-03-29T15:40:39.688Z,61.9
2017-03-29T15:40:49.985Z,61.9
2017-03-29T15:40:59.974Z,61.9
2017-03-29T15:41:09.970Z,61.9
2017-03-29T15:41:19.634Z,61.9
2017-03-29T15:41:29.630Z,61.9
2017-03-29T15:41:39.954Z,61.9
2017-03-29T15:41:49.950Z,61.9
2017-03-29T15:41:59.942Z,61.9
2017-03-29T15:42:09.940Z,61.9
2017-03-29T15:42:20.298Z,61.9
2017-03-29T15:42:29.264Z,61.9
2017-03-29T15:42:39.611Z,61.9
2017-03-29T15:42:49.918Z,61.9
2017-03-29T15:42:59.242Z,61.9
2017-03-29T15:43:09.918Z,61.9
2017-03-29T15:43:19.903Z,56.3
2017-03-29T15:43:29.895Z,56.3
2017-03-29T15:43:39.556Z,61.9
2017-03-29T15:43:49.885Z,61.9
2017-03-29T15:43:59.877Z,61.9
2017-03-29T15:44:09.545Z,61.9
2017-03-29T15:44:19.534Z,61.9
2017-03-29T15:44:29.865Z,61.9
2017-03-29T15:44:39.523Z,67.5
2017-03-29T15:44:49.855Z,67.5
2017-03-29T15:44:59.847Z,67.5
2017-03-29T15:45:10.201Z,67.5
2017-03-29T15:45:19.508Z,67.5
2017-03-29T15:45:29.841Z,67.5
2017-03-29T15:45:39.492Z,67.5
2017-03-29T15:45:49.824Z,67.5
2017-03-29T15:45:59.162Z,73.1
2017-03-29T15:46:09.479Z,73.1
2017-03-29T15:46:19.139Z,73.1
2017-03-29T15:46:29.800Z,73.1
2017-03-29T15:46:39.482Z,73.1
2017-03-29T15:46:49.791Z,73.1
2017-03-29T15:46:59.452Z,73.1
2017-03-29T15:47:09.779Z,73.1
2017-03-29T15:47:19.775Z,73.1
2017-03-29T15:47:29.808Z,73.1
2017-03-29T15:47:39.431Z,73.1
2017-03-29T15:47:49.089Z,73.1
2017-03-29T15:47:59.422Z,67.5
2017-03-29T15:48:09.413Z,67.5
2017-03-29T15:48:19.411Z,67.5
2017-03-29T15:48:29.069Z,67.5
2017-03-29T15:48:39.400Z,67.5
2017-03-29T15:48:49.754Z,67.5
2017-03-29T15:48:59.422Z,67.5
2017-03-29T15:49:09.385Z,73.1
2017-03-29T15:49:19.711Z,73.1
2017-03-29T15:49:29.958Z,73.1
2017-03-29T15:49:39.718Z,73.1
2017-03-29T15:49:49.693Z,73.1
2017-03-29T15:49:59.354Z,73.1
2017-03-29T15:50:09.352Z,73.1
2017-03-29T15:50:20.038Z,73.1
2017-03-29T15:50:29.338Z,73.1
2017-03-29T15:50:39.666Z,73.1
2017-03-29T15:50:49.354Z,73.1
2017-03-29T15:51:00.020Z,73.1
2017-03-29T15:51:09.652Z,73.1
2017-03-29T15:51:19.647Z,73.1
2017-03-29T15:51:29.655Z,73.1
2017-03-29T15:51:39.304Z,73.1
2017-03-29T15:51:49.296Z,73.1
2017-03-29T15:51:59.297Z,73.1
2017-03-29T15:52:09.622Z,67.5
2017-03-29T15:52:19.620Z,67.5
2017-03-29T15:52:29.275Z,67.5
2017-03-29T15:52:39.288Z,67.5
2017-03-29T15:52:49.612Z,67.5
2017-03-29T15:52:59.600Z,67.5
2017-03-29T15:53:09.944Z,67.5
2017-03-29T15:53:19.251Z,67.5
2017-03-29T15:53:29.591Z,67.5
2017-03-29T15:53:39.241Z,67.5
2017-03-29T15:53:49.570Z,61.9
2017-03-29T15:53:59.227Z,61.9
2017-03-29T15:54:08.893Z,61.9
2017-03-29T15:54:19.248Z,61.9
2017-03-29T15:54:29.800Z,61.9
2017-03-29T15:54:39.209Z,61.9
2017-03-29T15:54:49.538Z,56.3
2017-03-29T15:54:59.538Z,56.3
2017-03-29T15:55:09.533Z,56.3
2017-03-29T15:55:18.851Z,50.6
2017-03-29T15:55:28.847Z,50.6
2017-03-29T15:55:38.845Z,50.6
2017-03-29T15:55:49.507Z,50.6
2017-03-29T15:55:59.507Z,50.6
2017-03-29T15:56:09.495Z,50.6
2017-03-29T15:56:19.490Z,50.6
2017-03-29T15:56:29.482Z,50.6
2017-03-29T15:56:39.482Z,50.6
2017-03-29T15:56:49.143Z,50.6
2017-03-29T15:56:59.135Z,50.6
2017-03-29T15:57:09.463Z,50.6
2017-03-29T15:57:19.822Z,50.6
2017-03-29T15:57:29.453Z,50.6
2017-03-29T15:57:39.117Z,50.6
2017-03-29T15:57:49.107Z,45
2017-03-29T15:57:59.452Z,45
2017-03-29T15:58:09.431Z,45
2017-03-29T15:58:19.426Z,50.6
2017-03-29T15:58:29.422Z,50.6
2017-03-29T15:58:39.085Z,50.6
2017-03-29T15:58:49.442Z,50.6
2017-03-29T15:58:59.406Z,45
2017-03-29T15:59:09.402Z,45
2017-03-29T15:59:19.396Z,45
2017-03-29T15:59:29.643Z,45
2017-03-29T15:59:39.047Z,45
2017-03-29T15:59:48.713Z,45
2017-03-29T15:59:59.397Z,39.4
2017-03-29T16:00:09.370Z,39.4
2017-03-29T16:00:19.030Z,39.4
2017-03-29T16:00:29.039Z,39.4
2017-03-29T16:00:39.351Z,39.4
2017-03-29T16:00:48.682Z,33.8
2017-03-29T16:00:59.008Z,33.8
2017-03-29T16:01:09.340Z,33.8
2017-03-29T16:01:19.336Z,33.8
2017-03-29T16:01:29.324Z,33.8
2017-03-29T16:01:39.319Z,33.8
2017-03-29T16:01:48.977Z,33.8
2017-03-29T16:01:59.664Z,33.8
2017-03-29T16:02:09.306Z,33.8
2017-03-29T16:02:19.300Z,33.8
2017-03-29T16:02:29.300Z,33.8
2017-03-29T16:02:39.287Z,33.8
2017-03-29T16:02:49.289Z,33.8
2017-03-29T16:02:58.611Z,33.8
2017-03-29T16:03:09.280Z,28.1
2017-03-29T16:03:19.061Z,28.1
2017-03-29T16:03:29.259Z,28.1
2017-03-29T16:03:39.258Z,28.1
2017-03-29T16:03:49.252Z,28.1
2017-03-29T16:03:59.250Z,28.1
2017-03-29T16:04:08.577Z,28.1
2017-03-29T16:04:18.903Z,28.1
2017-03-29T16:04:29.233Z,28.1
2017-03-29T16:04:39.227Z,28.1
2017-03-29T16:04:49.223Z,28.1
2017-03-29T16:04:58.550Z,28.1
2017-03-29T16:05:09.214Z,28.1
2017-03-29T16:05:19.211Z,28.1
2017-03-29T16:05:29.196Z,28.1
2017-03-29T16:05:39.196Z,28.1
2017-03-29T16:05:48.522Z,28.1
2017-03-29T16:05:59.183Z,28.1
2017-03-29T16:06:08.843Z,28.1
2017-03-29T16:06:19.175Z,28.1
2017-03-29T16:06:29.167Z,28.1
2017-03-29T16:06:39.164Z,28.1
2017-03-29T16:06:49.159Z,28.1
2017-03-29T16:06:58.484Z,28.1
2017-03-29T16:07:08.812Z,28.1
2017-03-29T16:07:18.473Z,28.1
2017-03-29T16:07:29.140Z,28.1
2017-03-29T16:07:38.794Z,28.1
2017-03-29T16:07:49.150Z,28.1
2017-03-29T16:07:58.114Z,28.1
2017-03-29T16:08:09.469Z,28.1
2017-03-29T16:08:18.234Z,28.1
2017-03-29T16:08:29.108Z,28.1
2017-03-29T16:08:39.450Z,28.1
2017-03-29T16:08:48.423Z,28.1
2017-03-29T16:08:59.086Z,28.1
2017-03-29T16:09:08.747Z,28.1
2017-03-29T16:09:19.081Z,28.1
2017-03-29T16:09:29.081Z,28.1
2017-03-29T16:09:39.071Z,28.1
2017-03-29T16:09:49.063Z,28.1
2017-03-29T16:09:58.724Z,28.1
2017-03-29T16:10:09.054Z,28.1
2017-03-29T16:10:18.708Z,28.1
2017-03-29T16:10:28.373Z,28.1
2017-03-29T16:10:39.038Z,28.1
2017-03-29T16:10:49.034Z,28.1
2017-03-29T16:10:58.696Z,28.1
2017-03-29T16:11:09.021Z,28.1
2017-03-29T16:11:19.016Z,28.1
2017-03-29T16:11:28.678Z,28.1
2017-03-29T16:11:39.004Z,28.1
2017-03-29T16:11:48.671Z,28.1
2017-03-29T16:11:58.999Z,28.1
2017-03-29T16:12:08.659Z,28.1
2017-03-29T16:12:18.655Z,28.1
2017-03-29T16:12:28.641Z,28.1
2017-03-29T16:12:38.639Z,28.1
2017-03-29T16:12:48.969Z,28.1
2017-03-29T16:12:58.966Z,28.1
2017-03-29T16:13:08.954Z,28.1
2017-03-29T16:13:18.286Z,28.1
2017-03-29T16:13:28.610Z,28.1
2017-03-29T16:13:38.959Z,28.1
2017-03-29T16:13:48.601Z,28.1
2017-03-29T16:13:58.933Z,28.1
2017-03-29T16:14:08.592Z,28.1
2017-03-29T16:14:18.925Z,28.1
2017-03-29T16:14:28.936Z,28.1
2017-03-29T16:14:38.577Z,22.5
2017-03-29T16:14:48.912Z,22.5
2017-03-29T16:14:58.900Z,22.5
2017-03-29T16:15:08.893Z,22.5
2017-03-29T16:15:18.555Z,22.5
2017-03-29T16:15:27.879Z,22.5
2017-03-29T16:15:38.877Z,22.5
2017-03-29T16:15:48.879Z,22.5
2017-03-29T16:15:58.872Z,22.5
2017-03-29T16:16:08.879Z,22.5
2017-03-29T16:16:18.857Z,22.5
2017-03-29T16:16:28.518Z,22.5
2017-03-29T16:16:39.213Z,22.5
2017-03-29T16:16:48.173Z,22.5
2017-03-29T16:16:58.838Z,22.5
2017-03-29T16:17:08.832Z,22.5
2017-03-29T16:17:18.827Z,22.5
2017-03-29T16:17:28.824Z,22.5
2017-03-29T16:17:38.481Z,22.5
2017-03-29T16:17:48.473Z,22.5
2017-03-29T16:17:58.135Z,22.5
2017-03-29T16:18:08.262Z,28.1
2017-03-29T16:18:18.828Z,28.1
2017-03-29T16:18:28.122Z,28.1
2017-03-29T16:18:38.450Z,28.1
2017-03-29T16:18:48.779Z,22.5
2017-03-29T16:18:58.775Z,22.5
2017-03-29T16:19:08.435Z,22.5
2017-03-29T16:19:18.094Z,22.5
2017-03-29T16:19:28.673Z,22.5
2017-03-29T16:19:38.424Z,22.5
2017-03-29T16:19:48.747Z,22.5
2017-03-29T16:19:58.742Z,22.5
2017-03-29T16:20:08.401Z,22.5
2017-03-29T16:20:18.400Z,22.5
2017-03-29T16:20:28.749Z,22.5
2017-03-29T16:20:38.387Z,22.5
2017-03-29T16:20:48.717Z,22.5
2017-03-29T16:20:58.708Z,22.5
2017-03-29T16:21:08.376Z,22.5
2017-03-29T16:21:18.699Z,22.5
2017-03-29T16:21:28.695Z,22.5
2017-03-29T16:21:38.695Z,22.5
2017-03-29T16:21:48.682Z,22.5
2017-03-29T16:21:58.700Z,16.9
2017-03-29T16:22:08.344Z,16.9
2017-03-29T16:22:18.667Z,16.9
2017-03-29T16:22:27.993Z,16.9
2017-03-29T16:22:37.988Z,16.9
2017-03-29T16:22:48.675Z,16.9
2017-03-29T16:22:57.979Z,16.9
2017-03-29T16:23:08.305Z,16.9
2017-03-29T16:23:18.305Z,16.9
2017-03-29T16:23:27.964Z,16.9
2017-03-29T16:23:38.625Z,16.9
2017-03-29T16:23:48.619Z,16.9
2017-03-29T16:23:58.409Z,16.9
2017-03-29T16:24:07.940Z,16.9
2017-03-29T16:24:18.270Z,16.9
2017-03-29T16:24:28.849Z,16.9
2017-03-29T16:24:38.262Z,22.5
2017-03-29T16:24:48.587Z,22.5
2017-03-29T16:24:58.585Z,22.5
2017-03-29T16:25:08.247Z,22.5
2017-03-29T16:25:18.608Z,22.5
2017-03-29T16:25:27.898Z,22.5
2017-03-29T16:25:38.228Z,22.5
2017-03-29T16:25:48.554Z,22.5
2017-03-29T16:25:58.552Z,22.5
2017-03-29T16:26:08.547Z,22.5
2017-03-29T16:26:18.543Z,22.5
2017-03-29T16:26:28.227Z,22.5
2017-03-29T16:26:38.533Z,22.5
2017-03-29T16:26:47.852Z,22.5
2017-03-29T16:26:58.872Z,22.5
2017-03-29T16:27:08.514Z,22.5
2017-03-29T16:27:17.840Z,28.1
2017-03-29T16:27:28.502Z,28.1
2017-03-29T16:27:38.497Z,28.1
2017-03-29T16:27:48.161Z,28.1
2017-03-29T16:27:57.815Z,28.1
2017-03-29T16:28:07.817Z,28.1
2017-03-29T16:28:18.829Z,28.1
2017-03-29T16:28:28.137Z,28.1
2017-03-29T16:28:38.837Z,28.1
2017-03-29T16:28:48.811Z,28.1
2017-03-29T16:28:58.125Z,28.1
2017-03-29T16:29:08.451Z,28.1
2017-03-29T16:29:18.823Z,28.1
2017-03-29T16:29:28.694Z,28.1
2017-03-29T16:29:38.104Z,28.1
2017-03-29T16:29:48.429Z,28.1
2017-03-29T16:29:58.091Z,28.1
2017-03-29T16:30:08.085Z,28.1
2017-03-29T16:30:17.745Z,28.1
2017-03-29T16:30:28.438Z,28.1
2017-03-29T16:30:38.403Z,28.1
2017-03-29T16:30:48.396Z,28.1
2017-03-29T16:30:58.059Z,28.1
2017-03-29T16:31:08.053Z,28.1
2017-03-29T16:31:18.417Z,28.1
2017-03-29T16:31:27.509Z,28.1
2017-03-29T16:31:37.370Z,28.1
2017-03-29T16:31:48.372Z,28.1
2017-03-29T16:31:58.367Z,28.1
2017-03-29T16:32:08.361Z,28.1
2017-03-29T16:32:18.016Z,28.1
2017-03-29T16:32:27.674Z,28.1
2017-03-29T16:32:38.339Z,28.1
2017-03-29T16:32:48.337Z,28.1
2017-03-29T16:32:58.000Z,28.1
2017-03-29T16:33:08.681Z,28.1
2017-03-29T16:33:17.646Z,28.1
2017-03-29T16:33:27.641Z,28.1
2017-03-29T16:33:37.979Z,28.1
2017-03-29T16:33:48.322Z,28.1
2017-03-29T16:33:57.629Z,22.5
2017-03-29T16:34:07.958Z,22.5
2017-03-29T16:34:17.629Z,22.5
2017-03-29T16:34:28.540Z,22.5
2017-03-29T16:34:37.943Z,22.5
2017-03-29T16:34:47.938Z,22.5
2017-03-29T16:34:58.270Z,22.5
2017-03-29T16:35:08.299Z,22.5
2017-03-29T16:35:17.919Z,22.5
2017-03-29T16:35:28.602Z,22.5
2017-03-29T16:35:38.246Z,22.5
2017-03-29T16:35:48.241Z,22.5
2017-03-29T16:35:57.918Z,22.5
2017-03-29T16:36:08.263Z,22.5
2017-03-29T16:36:18.226Z,22.5
2017-03-29T16:36:27.551Z,22.5
2017-03-29T16:36:37.880Z,22.5
2017-03-29T16:36:48.213Z,22.5
2017-03-29T16:36:57.534Z,22.5
2017-03-29T16:37:07.999Z,22.5
2017-03-29T16:37:18.196Z,22.5
2017-03-29T16:37:28.185Z,22.5
2017-03-29T16:37:37.848Z,22.5
2017-03-29T16:37:48.175Z,22.5
2017-03-29T16:37:57.836Z,22.5
2017-03-29T16:38:07.838Z,22.5
2017-03-29T16:38:18.513Z,22.5
2017-03-29T16:38:27.617Z,28.1
2017-03-29T16:38:37.817Z,28.1
2017-03-29T16:38:48.153Z,28.1
2017-03-29T16:38:57.471Z,28.1
2017-03-29T16:39:08.146Z,28.1
2017-03-29T16:39:17.794Z,28.1
2017-03-29T16:39:27.506Z,28.1
2017-03-29T16:39:38.117Z,28.1
2017-03-29T16:39:48.116Z,28.1
2017-03-29T16:39:57.777Z,28.1
2017-03-29T16:40:07.787Z,28.1
2017-03-29T16:40:18.096Z,28.1
2017-03-29T16:40:27.552Z,28.1
2017-03-29T16:40:38.108Z,28.1
2017-03-29T16:40:47.753Z,28.1
2017-03-29T16:40:58.076Z,28.1
2017-03-29T16:41:08.641Z,28.1
2017-03-29T16:41:18.065Z,28.1
2017-03-29T16:41:28.084Z,28.1
2017-03-29T16:41:38.053Z,28.1
2017-03-29T16:41:48.051Z,28.1
2017-03-29T16:41:57.710Z,28.1
2017-03-29T16:42:08.396Z,28.1
2017-03-29T16:42:18.039Z,28.1
2017-03-29T16:42:27.362Z,28.1
2017-03-29T16:42:38.035Z,28.1
2017-03-29T16:42:48.017Z,28.1
2017-03-29T16:42:57.010Z,28.1
2017-03-29T16:43:08.008Z,28.1
2017-03-29T16:43:18.006Z,28.1
2017-03-29T16:43:27.661Z,28.1
2017-03-29T16:43:37.992Z,28.1
2017-03-29T16:43:47.987Z,28.1
2017-03-29T16:43:57.983Z,28.1
2017-03-29T16:44:07.974Z,28.1
2017-03-29T16:44:17.975Z,28.1
2017-03-29T16:44:27.968Z,28.1
2017-03-29T16:44:37.962Z,28.1
2017-03-29T16:44:47.283Z,22.5
2017-03-29T16:44:57.983Z,22.5
2017-03-29T16:45:07.945Z,22.5
2017-03-29T16:45:18.294Z,22.5
2017-03-29T16:45:27.595Z,22.5
2017-03-29T16:45:37.960Z,22.5
2017-03-29T16:45:47.927Z,22.5
2017-03-29T16:45:57.925Z,22.5
2017-03-29T16:46:07.933Z,22.5
2017-03-29T16:46:17.238Z,22.5
2017-03-29T16:46:27.599Z,22.5
2017-03-29T16:46:37.564Z,22.5
2017-03-29T16:46:47.891Z,22.5
2017-03-29T16:46:57.558Z,22.5
2017-03-29T16:47:07.881Z,22.5
2017-03-29T16:47:17.876Z,22.5
2017-03-29T16:47:27.537Z,22.5
2017-03-29T16:47:37.197Z,22.5
2017-03-29T16:47:47.859Z,22.5
2017-03-29T16:47:57.532Z,22.5
2017-03-29T16:48:07.852Z,22.5
2017-03-29T16:48:17.513Z,22.5
2017-03-29T16:48:27.502Z,22.5
2017-03-29T16:48:37.833Z,22.5
2017-03-29T16:48:47.496Z,22.5
2017-03-29T16:48:58.178Z,22.5
2017-03-29T16:49:07.151Z,22.5
2017-03-29T16:49:17.478Z,22.5
2017-03-29T16:49:28.057Z,22.5
2017-03-29T16:49:37.468Z,22.5
2017-03-29T16:49:47.462Z,22.5
2017-03-29T16:49:57.486Z,22.5
2017-03-29T16:50:07.792Z,22.5
2017-03-29T16:50:17.112Z,22.5
2017-03-29T16:50:27.106Z,22.5
2017-03-29T16:50:37.773Z,22.5
2017-03-29T16:50:47.097Z,22.5
2017-03-29T16:50:57.761Z,22.5
2017-03-29T16:51:07.418Z,22.5
2017-03-29T16:51:17.417Z,22.5
2017-03-29T16:51:27.749Z,22.5
2017-03-29T16:51:37.740Z,22.5
2017-03-29T16:51:47.738Z,22.5
2017-03-29T16:51:57.063Z,22.5
2017-03-29T16:52:07.404Z,22.5
2017-03-29T16:52:17.506Z,22.5
2017-03-29T16:52:27.711Z,22.5
2017-03-29T16:52:37.709Z,22.5
2017-03-29T16:52:47.702Z,22.5
2017-03-29T16:52:57.496Z,22.5
2017-03-29T16:53:07.694Z,22.5
2017-03-29T16:53:18.067Z,22.5
2017-03-29T16:53:27.678Z,22.5
2017-03-29T16:53:37.692Z,22.5
2017-03-29T16:53:47.669Z,22.5
2017-03-29T16:53:56.996Z,22.5
2017-03-29T16:54:06.655Z,22.5
2017-03-29T16:54:17.658Z,22.5
2017-03-29T16:54:27.231Z,22.5
2017-03-29T16:54:37.647Z,22.5
2017-03-29T16:54:46.970Z,22.5
2017-03-29T16:54:57.297Z,22.5
2017-03-29T16:55:07.298Z,22.5
2017-03-29T16:55:17.624Z,22.5
2017-03-29T16:55:27.980Z,22.5
2017-03-29T16:55:37.277Z,22.5
2017-03-29T16:55:47.275Z,22.5
2017-03-29T16:55:57.600Z,22.5
2017-03-29T16:56:07.617Z,22.5
2017-03-29T16:56:16.921Z,22.5
2017-03-29T16:56:27.249Z,22.5
2017-03-29T16:56:37.245Z,22.5
2017-03-29T16:56:47.239Z,22.5
2017-03-29T16:56:56.903Z,22.5
2017-03-29T16:57:07.565Z,22.5
2017-03-29T16:57:17.554Z,22.5
2017-03-29T16:57:27.575Z,22.5
2017-03-29T16:57:37.553Z,22.5
2017-03-29T16:57:47.547Z,22.5
2017-03-29T16:57:57.208Z,22.5
2017-03-29T16:58:07.534Z,22.5
2017-03-29T16:58:17.536Z,22.5
2017-03-29T16:58:27.185Z,22.5
2017-03-29T16:58:37.518Z,22.5
2017-03-29T16:58:47.546Z,22.5
2017-03-29T16:58:57.864Z,22.5
2017-03-29T16:59:07.502Z,22.5
2017-03-29T16:59:17.497Z,22.5
2017-03-29T16:59:27.740Z,22.5
2017-03-29T16:59:37.152Z,22.5
2017-03-29T16:59:47.143Z,22.5
2017-03-29T16:59:56.937Z,22.5
2017-03-29T17:00:07.132Z,22.5
2017-03-29T17:00:17.464Z,22.5
2017-03-29T17:00:27.461Z,22.5
2017-03-29T17:00:36.785Z,22.5
2017-03-29T17:00:47.468Z,22.5
2017-03-29T17:00:57.445Z,22.5
2017-03-29T17:01:07.792Z,22.5
2017-03-29T17:01:17.435Z,22.5
2017-03-29T17:01:27.426Z,22.5
2017-03-29T17:01:36.753Z,22.5
2017-03-29T17:01:47.078Z,22.5
2017-03-29T17:01:57.415Z,22.5
2017-03-29T17:02:07.408Z,22.5
2017-03-29T17:02:17.398Z,22.5
2017-03-29T17:02:27.070Z,22.5
2017-03-29T17:02:37.051Z,22.5
2017-03-29T17:02:47.053Z,22.5
2017-03-29T17:02:57.047Z,22.5
2017-03-29T17:03:07.371Z,22.5
2017-03-29T17:03:17.371Z,22.5
2017-03-29T17:03:27.029Z,22.5
2017-03-29T17:03:37.022Z,22.5
2017-03-29T17:03:47.023Z,16.9
2017-03-29T17:03:56.678Z,16.9
2017-03-29T17:04:07.007Z,16.9
2017-03-29T17:04:17.337Z,16.9
2017-03-29T17:04:27.249Z,16.9
2017-03-29T17:04:36.992Z,16.9
2017-03-29T17:04:47.676Z,16.9
2017-03-29T17:04:56.979Z,16.9
2017-03-29T17:05:06.998Z,16.9
2017-03-29T17:05:17.304Z,16.9
2017-03-29T17:05:26.631Z,16.9
2017-03-29T17:05:37.298Z,16.9
2017-03-29T17:05:47.288Z,16.9
2017-03-29T17:05:56.617Z,16.9
2017-03-29T17:06:07.634Z,16.9
2017-03-29T17:06:17.273Z,16.9
2017-03-29T17:06:27.269Z,16.9
2017-03-29T17:06:36.929Z,16.9
2017-03-29T17:06:47.259Z,16.9
2017-03-29T17:06:56.585Z,16.9
2017-03-29T17:07:07.273Z,16.9
2017-03-29T17:07:17.243Z,16.9
2017-03-29T17:07:27.237Z,16.9
2017-03-29T17:07:36.231Z,16.9
2017-03-29T17:07:47.227Z,16.9
2017-03-29T17:07:57.225Z,16.9
2017-03-29T17:08:07.581Z,16.9
2017-03-29T17:08:17.211Z,16.9
2017-03-29T17:08:27.202Z,16.9
2017-03-29T17:08:37.201Z,16.9
2017-03-29T17:08:46.863Z,16.9
2017-03-29T17:08:56.517Z,16.9
2017-03-29T17:09:06.849Z,16.9
2017-03-29T17:09:17.194Z,16.9
2017-03-29T17:09:27.174Z,16.9
2017-03-29T17:09:37.168Z,16.9
2017-03-29T17:09:47.164Z,16.9
2017-03-29T17:09:56.613Z,16.9
2017-03-29T17:10:07.149Z,16.9
2017-03-29T17:10:17.143Z,16.9
2017-03-29T17:10:27.143Z,16.9
2017-03-29T17:10:37.139Z,16.9
2017-03-29T17:10:47.131Z,16.9
2017-03-29T17:10:56.792Z,16.9
2017-03-29T17:11:06.785Z,16.9
2017-03-29T17:11:17.113Z,16.9
2017-03-29T17:11:27.107Z,16.9
2017-03-29T17:11:37.463Z,16.9
2017-03-29T17:11:47.096Z,16.9
2017-03-29T17:11:56.762Z,16.9
2017-03-29T17:12:06.751Z,16.9
2017-03-29T17:12:17.087Z,16.9
2017-03-29T17:12:27.079Z,16.9
2017-03-29T17:12:37.075Z,16.9
2017-03-29T17:12:47.071Z,16.9
2017-03-29T17:12:56.930Z,16.9
2017-03-29T17:13:07.061Z,16.9
2017-03-29T17:13:17.053Z,16.9
2017-03-29T17:13:27.046Z,16.9
2017-03-29T17:13:37.043Z,16.9
2017-03-29T17:13:47.035Z,16.9
2017-03-29T17:13:57.028Z,16.9
2017-03-29T17:14:06.711Z,11.3
2017-03-29T17:14:16.351Z,11.3
2017-03-29T17:14:27.020Z,11.3
2017-03-29T17:14:37.010Z,11.3
2017-03-29T17:14:46.670Z,11.3
2017-03-29T17:14:56.665Z,11.3
2017-03-29T17:15:06.992Z,11.3
2017-03-29T17:15:17.008Z,11.3
2017-03-29T17:15:26.986Z,11.3
2017-03-29T17:15:37.003Z,11.3
2017-03-29T17:15:46.977Z,11.3
2017-03-29T17:15:56.666Z,11.3
2017-03-29T17:16:06.964Z,11.3
2017-03-29T17:16:16.623Z,11.3
2017-03-29T17:16:27.319Z,11.3
2017-03-29T17:16:36.979Z,5.6
2017-03-29T17:16:46.943Z,5.6
2017-03-29T17:16:55.926Z,5.6
2017-03-29T17:17:06.975Z,5.6
2017-03-29T17:17:16.926Z,5.6
2017-03-29T17:17:26.916Z,5.6
2017-03-29T17:17:36.578Z,5.6
2017-03-29T17:17:46.912Z,5.6
2017-03-29T17:17:56.235Z,5.6
2017-03-29T17:18:06.895Z,5.6
2017-03-29T17:18:16.889Z,5.6
2017-03-29T17:18:26.551Z,5.6
2017-03-29T17:18:37.267Z,5.6
2017-03-29T17:18:46.878Z,5.6
2017-03-29T17:18:56.536Z,5.6
2017-03-29T17:19:06.878Z,5.6
2017-03-29T17:19:16.525Z,5.6
2017-03-29T17:19:27.218Z,0
2017-03-29T17:19:36.517Z,0
2017-03-29T17:19:46.843Z,0
2017-03-29T17:19:56.506Z,0
2017-03-29T17:20:06.499Z,0
2017-03-29T17:20:16.829Z,0
2017-03-29T17:20:26.154Z,0
2017-03-29T17:20:36.820Z,0
2017-03-29T17:20:47.171Z,0
2017-03-29T17:20:56.139Z,0
2017-03-29T17:21:07.175Z,0
2017-03-29T17:21:16.798Z,0
2017-03-29T17:21:26.789Z,0
2017-03-29T17:21:36.790Z,5.6
2017-03-29T17:21:46.783Z,5.6
2017-03-29T17:21:56.438Z,5.6
2017-03-29T17:22:06.771Z,5.6
2017-03-29T17:22:16.764Z,5.6
2017-03-29T17:22:26.428Z,5.6
2017-03-29T17:22:36.751Z,5.6
2017-03-29T17:22:46.413Z,5.6
2017-03-29T17:22:56.743Z,5.6
2017-03-29T17:23:06.473Z,5.6
2017-03-29T17:23:16.422Z,5.6